Terminal Aerodrome Forecast
Issued by NWS

Home | Current Version | Previous Version | Text Only | Print | Product List | Glossary Off
Versions: 1 2 3 4 5 6 7 8 9 10 11 12 13 14 15 16 17 18

000
FTUS42 KMHX 190500
TAFPGV
TAF
KPGV 190539Z 1906/2006 20005KT P6SM SCT005 SCT050
     FM190900 22003KT 4SM BR BKN005
     FM191300 27008KT P6SM SCT040
     FM191900 30008KT P6SM VCTS BKN040CB
     FM200000 36004KT P6SM BKN040
      AMD LTD TO CLD VIS AND WIND=

USA.gov is the U.S. government's official web portal to all federal, state and local government web resources and services.